Last 24 Hours

Pinyon

10 Minute Data | America/Los_Angeles
as of 9/2/26 1:18 AM PDT
Date & Time Temp (°F) Dew Pt (°F) RH (%) Wind Spd (mph) Wind Dir (°) Wind Gust (mph) Wind Gst Dir (°) Daily Max Temp (°F) Daily Min Temp (°F)
9/2/26 - 0110 62.9 29.9 29 21.7 NNW | 328 30.5 NNW | 327 62.9 62.5
9/2/26 - 0100 63.0 30.1 29 22.0 NW | 326 28.4 NNW | 332 81.8 62.7
9/2/26 - 0050 63.3 29.2 27 21.1 NNW | 327 28.6 NNW | 339 81.8 62.7
9/2/26 - 0040 63.6 28.4 26 21.9 NW | 326 29.3 NNW | 344 81.8 63.3
9/2/26 - 0030 64.0 28.4 26 21.3 NW | 324 30.8 NNW | 327 81.8 63.3
9/2/26 - 0020 64.8 28.8 26 20.7 NW | 326 28.8 NNW | 334 81.8 63.3
9/2/26 - 0010 65.0 28.8 26 18.4 NW | 325 26.1 NW | 324 81.8 63.3
9/2/26 - 0000 65.1 29.0 26 18.2 NW | 322 27.8 NW | 318 81.8 63.3
9/1/26 - 2350 65.3 30.0 26 18.6 NW | 324 25.6 NNW | 328 81.8 63.3
9/1/26 - 2340 65.3 30.4 27 18.9 NNW | 327 26.7 NNW | 327 81.8 63.3
9/1/26 - 2330 65.3 31.6 28 19.9 NW | 324 27.7 NNW | 330 81.8 63.3
9/1/26 - 2320 65.4 32.8 30 21.1 NW | 323 29.7 NW | 314 81.8 63.3
9/1/26 - 2310 65.6 33.5 30 22.3 NW | 325 28.1 NW | 324 81.8 63.3
9/1/26 - 2300 65.3 34.1 31 20.5 NW | 324 26.9 NW | 322 81.8 63.3
9/1/26 - 2250 65.2 34.2 31 20.5 NW | 324 26.8 NW | 310 81.8 63.3
9/1/26 - 2240 65.3 34.4 32 19.6 NW | 325 25.4 NNW | 332 81.8 63.3
9/1/26 - 2230 65.4 34.4 32 18.7 NW | 325 26.3 NW | 323 81.8 63.3
9/1/26 - 2220 65.3 34.2 31 17.6 NW | 326 22.9 NNW | 335 81.8 63.3
9/1/26 - 2210 65.5 33.8 31 16.7 NNW | 330 22.4 NW | 321 81.8 63.3
9/1/26 - 2200 65.6 33.3 30 16.2 NNW | 330 21.5 NNW | 334 81.8 63.3
9/1/26 - 2150 65.6 33.4 30 15.7 NNW | 330 21.4 NNW | 332 81.8 63.3
9/1/26 - 2140 65.9 33.3 30 16.9 NNW | 332 23.8 NNW | 328 81.8 63.3
9/1/26 - 2130 66.0 31.9 28 18.3 NNW | 332 24.0 NNW | 341 81.8 63.3
9/1/26 - 2120 66.1 31.8 28 18.7 NNW | 333 25.8 NNW | 342 81.8 63.3
9/1/26 - 2110 66.2 31.8 28 17.9 NNW | 337 25.1 NNW | 336 81.8 63.3
9/1/26 - 2100 66.4 31.3 27 19.7 NNW | 334 26.4 NNW | 344 81.8 63.3
9/1/26 - 2050 66.7 28.9 24 18.2 NNW | 330 26.3 NNW | 335 81.8 63.3
9/1/26 - 2040 67.0 27.8 23 18.5 NNW | 331 26.3 NNW | 329 81.8 63.3
9/1/26 - 2030 67.3 28.0 23 18.9 NNW | 330 26.7 NW | 324 81.8 63.3
9/1/26 - 2020 67.5 28.2 23 18.5 NNW | 330 26.8 NNW | 334 81.8 63.3
9/1/26 - 2010 67.8 28.1 22 19.0 NNW | 329 26.4 NNW | 339 81.8 63.3
9/1/26 - 2000 68.2 27.4 22 19.4 NNW | 329 28.1 NNW | 339 81.8 63.3
9/1/26 - 1950 68.7 26.0 20 20.6 NNW | 330 27.9 NNW | 329 81.8 63.3
9/1/26 - 1940 69.1 31.6 25 20.2 NNW | 329 28.4 NW | 321 81.8 63.3
9/1/26 - 1930 69.6 34.5 27 20.6 NNW | 329 29.3 NNW | 330 81.8 63.3
9/1/26 - 1920 70.1 33.8 26 20.0 NNW | 336 28.9 N | 350 81.8 63.3
9/1/26 - 1910 70.9 33.1 25 20.4 NNW | 336 28.0 NW | 326 81.8 63.3
9/1/26 - 1900 71.9 31.5 22 21.1 NNW | 336 29.2 NNW | 343 81.8 63.3
9/1/26 - 1850 72.8 30.6 21 20.7 NNW | 335 31.0 NNW | 339 81.8 63.3
9/1/26 - 1840 73.3 32.9 23 21.5 NNW | 335 33.5 NNW | 328 81.8 63.3
9/1/26 - 1830 73.8 33.2 23 20.5 NNW | 340 29.0 N | 353 81.8 63.3
9/1/26 - 1820 74.6 34.0 23 20.0 NNW | 337 30.1 NNW | 340 81.8 63.3
9/1/26 - 1810 75.2 34.4 23 18.0 NNW | 340 27.0 N | 354 81.8 63.3
9/1/26 - 1800 75.8 35.4 23 18.9 NNW | 338 28.5 N | 349 81.8 63.3
9/1/26 - 1750 76.4 36.2 23 18.7 NNW | 339 25.8 N | 6 81.8 63.3
9/1/26 - 1740 76.7 37.1 24 19.4 NNW | 342 28.6 N | 349 81.8 63.3
9/1/26 - 1730 77.1 37.3 24 19.6 NNW | 348 30.5 NNW | 347 81.8 63.3
9/1/26 - 1720 78.1 37.6 23 16.9 NNW | 337 25.8 NW | 324 81.8 63.3
9/1/26 - 1710 78.2 37.6 23 17.0 NNW | 340 27.9 N | 350 81.8 63.3
9/1/26 - 1700 78.1 37.2 23 18.8 NNW | 341 28.2 N | 0 81.8 63.3
9/1/26 - 1650 78.3 37.1 23 19.5 NNW | 347 30.0 N | 354 81.8 63.3
9/1/26 - 1640 79.1 37.3 22 18.5 NNW | 339 28.1 NNW | 334 81.8 63.3
9/1/26 - 1630 79.7 36.8 21 16.4 NNW | 339 26.4 NNW | 346 81.8 63.3
9/1/26 - 1620 78.8 37.0 22 18.4 NNW | 342 26.8 NNW | 337 81.8 63.3
9/1/26 - 1610 79.1 36.9 22 19.6 NNW | 344 31.9 NNW | 346 81.8 63.3
9/1/26 - 1600 79.7 36.7 21 16.0 NNW | 345 25.6 N | 351 81.8 63.3
9/1/26 - 1550 79.9 37.0 21 17.5 NNW | 344 25.7 NW | 322 81.8 63.3
9/1/26 - 1540 79.8 37.2 22 16.4 NNW | 347 26.6 NNW | 336 81.8 63.3
9/1/26 - 1530 80.6 37.5 21 17.0 NNW | 342 27.4 NNW | 346 81.8 63.3
9/1/26 - 1520 80.4 37.5 21 15.3 NNW | 338 24.6 N | 354 81.8 63.3
9/1/26 - 1510 80.2 37.4 22 16.2 NNW | 340 31.0 NW | 324 81.8 63.3
9/1/26 - 1500 80.4 37.5 21 17.6 NNW | 337 28.6 N | 354 81.8 63.3
9/1/26 - 1450 80.7 37.0 21 16.9 NNW | 345 25.4 NNW | 342 81.8 63.3
9/1/26 - 1440 80.6 36.5 21 18.5 NNW | 345 27.2 N | 350 81.8 63.3
9/1/26 - 1430 80.9 36.4 20 16.8 NNW | 346 26.3 NNW | 346 81.8 63.3
9/1/26 - 1420 80.0 36.0 21 17.9 N | 350 28.6 N | 0 81.4 63.3
9/1/26 - 1410 80.5 36.2 20 17.3 N | 350 28.9 N | 2 81.4 63.3
9/1/26 - 1400 80.7 36.4 20 13.1 NNW | 335 21.6 NW | 316 81.4 63.3
9/1/26 - 1350 80.6 36.2 20 15.7 NNW | 341 24.5 N | 354 81.4 63.3
9/1/26 - 1340 80.3 35.7 20 15.3 NNW | 330 25.1 NNW | 334 81.4 63.3
9/1/26 - 1330 80.0 35.7 20 16.8 NNW | 344 26.9 N | 2 80.5 63.3
9/1/26 - 1320 79.2 36.9 22 15.7 N | 352 24.0 N | 0 80.2 63.3
9/1/26 - 1310 79.1 36.5 22 17.9 NNW | 346 29.4 NNW | 342 80.2 63.3
9/1/26 - 1300 79.4 37.2 22 14.5 NNW | 341 25.7 N | 353 80.2 63.3
9/1/26 - 1250 78.7 37.2 22 15.6 N | 356 24.3 NNW | 346 80.1 63.3
9/1/26 - 1240 78.7 37.3 22 16.5 NNW | 343 26.2 NNW | 340 79.4 63.3
9/1/26 - 1230 78.3 37.3 23 16.0 NNW | 342 27.6 NNW | 343 79.1 63.3
9/1/26 - 1220 78.1 37.6 23 17.5 NNW | 340 28.0 N | 352 79.0 63.3
9/1/26 - 1210 77.9 38.2 24 16.6 NNW | 341 27.8 N | 350 78.3 63.3
9/1/26 - 1200 77.6 38.0 24 16.6 NNW | 339 26.5 NW | 326 78.3 63.3
9/1/26 - 1150 77.3 39.1 25 18.5 NNW | 347 29.7 NNW | 342 77.8 63.3
9/1/26 - 1140 77.0 40.2 27 17.2 NNW | 345 24.4 NNW | 346 77.8 63.3
9/1/26 - 1130 77.0 40.2 27 17.9 NNW | 337 27.2 N | 353 77.8 63.3
9/1/26 - 1120 76.2 40.8 28 18.1 NNW | 343 26.6 N | 349 76.6 63.3
9/1/26 - 1110 76.0 41.8 29 18.2 NNW | 334 30.4 NNW | 336 76.4 63.3
9/1/26 - 1100 75.8 41.3 29 17.5 NNW | 346 28.7 NNW | 345 76.4 63.3
9/1/26 - 1050 75.4 41.2 29 20.0 NNW | 348 28.3 N | 349 76.4 63.3
9/1/26 - 1040 75.7 40.4 28 16.7 NNW | 339 27.7 NNW | 342 76.4 63.3
9/1/26 - 1030 74.7 40.9 30 19.4 NNW | 342 28.1 NNW | 335 75.1 63.3
9/1/26 - 1020 74.4 39.3 28 19.2 NNW | 336 27.6 NNW | 334 74.9 63.3
9/1/26 - 1010 74.4 38.6 27 19.5 NNW | 340 28.6 NNW | 335 74.9 63.3
9/1/26 - 1000 74.0 35.6 25 18.4 NNW | 335 27.9 NNW | 339 74.9 63.3
9/1/26 - 0950 73.4 35.6 25 19.6 NNW | 336 28.1 NNW | 329 73.8 63.3
9/1/26 - 0940 73.4 32.5 22 18.7 NNW | 336 26.4 NNW | 333 73.7 63.3
9/1/26 - 0930 73.2 29.0 19 17.0 NNW | 336 24.3 NNW | 338 73.7 63.3
9/1/26 - 0920 72.6 28.2 19 19.2 NNW | 339 26.7 NNW | 345 73.1 63.3
9/1/26 - 0910 72.4 26.6 18 18.7 NNW | 344 24.8 N | 352 72.8 63.3
9/1/26 - 0900 71.8 24.7 17 18.9 NNW | 341 28.0 NNW | 331 72.2 63.3
9/1/26 - 0850 71.4 23.9 17 18.6 NNW | 335 26.1 NW | 325 71.8 63.3
9/1/26 - 0840 71.1 23.8 17 18.4 NNW | 334 25.7 NNW | 346 71.3 63.3
9/1/26 - 0830 70.7 23.7 17 18.5 NNW | 333 25.3 NW | 323 70.8 63.3
9/1/26 - 0820 70.3 22.6 16 17.8 NNW | 334 26.4 N | 351 70.6 63.3
9/1/26 - 0810 70.1 21.8 16 17.9 NNW | 339 28.0 NNW | 338 70.6 63.3
9/1/26 - 0800 69.8 21.5 16 18.6 NNW | 337 26.2 NNW | 337 69.9 63.3
9/1/26 - 0750 69.5 21.2 16 17.8 NNW | 336 25.4 NNW | 343 69.9 63.3
9/1/26 - 0740 69.2 20.8 16 18.2 NNW | 336 24.9 NNW | 336 69.4 63.3
9/1/26 - 0730 68.9 20.8 16 17.6 NNW | 339 26.4 NNW | 333 69.4 63.3
9/1/26 - 0720 67.8 21.0 17 16.3 NNW | 339 23.5 NNW | 347 69.4 63.3
9/1/26 - 0710 66.7 21.3 18 14.5 NNW | 341 22.4 NNW | 336 69.4 63.3
9/1/26 - 0700 64.8 22.1 19 12.9 NNW | 342 18.3 NNW | 340 69.4 63.3
9/1/26 - 0650 63.8 22.9 21 13.8 NNW | 347 18.2 N | 349 69.4 63.3
9/1/26 - 0640 64.0 22.8 21 13.6 N | 349 17.1 NNW | 348 69.4 63.3
9/1/26 - 0630 64.5 22.4 20 13.8 NNW | 347 18.6 NNW | 343 69.4 63.3
9/1/26 - 0620 63.7 22.9 21 13.7 NNW | 346 19.7 NNW | 341 69.4 63.3
9/1/26 - 0610 64.0 23.2 21 13.7 NNW | 346 17.5 NNW | 348 69.4 63.5
9/1/26 - 0600 64.5 23.0 20 14.2 NNW | 346 18.8 NNW | 345 69.4 63.9
9/1/26 - 0550 64.6 22.9 20 14.0 NNW | 344 19.4 N | 353 69.4 63.9
9/1/26 - 0540 64.2 23.8 21 13.5 NNW | 344 18.3 NNW | 340 69.4 63.9
9/1/26 - 0530 64.8 24.3 21 14.2 NNW | 344 20.2 NNW | 345 69.4 64.5
9/1/26 - 0520 64.9 25.0 22 14.8 NNW | 346 19.0 N | 353 69.4 64.6
9/1/26 - 0510 65.0 24.8 22 16.0 NNW | 348 20.6 NNW | 343 69.4 64.6
9/1/26 - 0500 65.1 24.9 22 15.6 NNW | 348 20.2 N | 353 69.4 64.6
9/1/26 - 0450 64.9 25.4 22 13.2 NNW | 346 19.6 N | 350 69.4 64.6
9/1/26 - 0440 64.9 26.2 23 11.9 NNW | 345 16.4 NNW | 346 69.4 64.6
9/1/26 - 0430 64.7 27.1 24 11.5 NNW | 345 15.6 NNW | 346 69.4 64.6
9/1/26 - 0420 64.8 27.0 24 11.4 NNW | 344 15.0 N | 349 69.4 64.7
9/1/26 - 0410 64.9 26.6 23 12.0 NNW | 347 15.7 NNW | 348 69.4 64.8
9/1/26 - 0400 65.4 26.8 23 11.2 N | 350 14.8 N | 352 69.4 65.1
9/1/26 - 0350 66.4 28.0 24 12.0 N | 352 17.8 N | 351 69.4 65.9
9/1/26 - 0340 66.9 29.5 24 13.5 N | 357 18.0 N | 354 69.4 66.5
9/1/26 - 0330 66.8 29.2 24 13.0 N | 356 20.1 N | 2 69.4 66.5
9/1/26 - 0320 66.6 28.2 23 13.1 N | 0 17.7 N | 6 69.4 66.5
9/1/26 - 0310 66.6 28.2 23 12.4 N | 2 17.2 WNW | 298 69.4 66.5
9/1/26 - 0300 66.8 28.0 23 12.7 N | 0 18.4 N | 0 69.4 66.7
9/1/26 - 0250 67.0 28.2 23 12.1 N | 359 17.3 NNE | 15 69.4 66.8
9/1/26 - 0240 67.0 27.8 23 11.6 N | 358 16.5 N | 3 69.4 66.8
9/1/26 - 0230 67.3 27.8 23 13.4 N | 354 20.5 N | 354 69.4 67.0
9/1/26 - 0220 67.6 28.5 23 14.2 N | 353 20.2 N | 349 69.4 67.0
9/1/26 - 0210 67.4 28.8 23 13.4 N | 349 21.6 N | 353 69.4 67.0
9/1/26 - 0200 67.2 28.7 24 12.0 NNW | 343 18.8 NNW | 329 69.4 67.0
9/1/26 - 0150 67.3 27.9 23 13.0 NNW | 339 20.0 N | 351 69.4 67.1
9/1/26 - 0140 67.7 27.2 22 13.1 NNW | 339 18.7 NW | 320 69.4 67.3
9/1/26 - 0130 68.4 27.1 21 15.9 NNW | 336 23.2 NNW | 337 69.4 68.1
9/1/26 - 0120 68.6 28.6 22 15.8 NNW | 336 22.6 N | 349 69.4 68.5
9/1/26 - 0110 69.1 29.4 23 15.9 NNW | 336 23.0 NNW | 339 69.4 68.7
Max 80.9 41.8 32 22.3 - 33.5 - 81.8 68.7
Avg 71.0 31.4 23 17.1 - 25.0 - - -
Min 62.9 20.8 16 11.2 - 14.8 - 62.9 62.5